KDNL/DNL METAR and TAF weather

Enter ICAO airport designator
Station Type Date Time Source
KDNL METAR 2019/10/21 22:53 UTC NOAA

KDNL 212253Z AUTO 12004KT 10SM CLR 24/17 A2998 RMK AO2 SLP147 T02440172 $


Station Type Date Time Source
KDNL Decoded METAR 2019/10/21 22:53 UTC NOAA

AUGUSTA DANIEL FIELD, GA, United States (KDNL) 33-28N 82-02W 130M
Oct 21, 2019 - 06:53 PM EDT / 2019.10.21 2253 UTC
Wind: from the ESE (120 degrees) at 5 MPH (4 KT):0
Visibility: 10 mile(s):0
Sky conditions: clear
Temperature: 75.9 F (24.4 C)
Dew Point: 63.0 F (17.2 C)
Relative Humidity: 64%
Pressure (altimeter): 29.98 in. Hg (1015 hPa)
ob: KDNL 212253Z AUTO 12004KT 10SM CLR 24/17 A2998 RMK AO2 SLP147 T02440172
cycle: 23

Station Type Date Time Source
KDNL TAF 2019/10/21 21:12 UTC NOAA

TAF
AMD KDNL 212109Z 2121/2218 12008KT P6SM BKN035 BKN250
FM220400 12005KT 3SM -SHRA BR OVC006 WS015/16025KT
FM220700 13005KT 1SM RA BR OVC003 WS015/18025KT
FM221200 21010KT P6SM VCSH BKN008
FM221600 26014G24KT P6SM BKN040

Example: see airport list